createdAt,value
2018-09-27T00:02:04.370Z,96.60
2018-09-27T00:04:33.146Z,96.40
2018-09-27T00:07:02.050Z,96.50
2018-09-27T00:09:30.955Z,96.80
2018-09-27T00:11:59.782Z,96.50
2018-09-27T00:14:28.579Z,96.80
2018-09-27T00:16:57.394Z,96.40
2018-09-27T00:19:26.282Z,96.50
2018-09-27T00:21:55.079Z,96.70
2018-09-27T00:24:23.903Z,97.00
2018-09-27T00:26:52.862Z,97.10
2018-09-27T00:29:21.667Z,96.70
2018-09-27T00:31:50.460Z,96.90
2018-09-27T00:34:19.570Z,96.70
2018-09-27T00:36:48.399Z,96.90
2018-09-27T00:39:17.303Z,96.70
2018-09-27T00:41:46.165Z,96.70
2018-09-27T00:44:14.966Z,96.90
2018-09-27T00:46:43.787Z,97.10
2018-09-27T00:49:12.575Z,97.00
2018-09-27T00:51:41.390Z,96.90
2018-09-27T00:54:10.155Z,97.00
2018-09-27T00:56:39.075Z,97.10
2018-09-27T00:59:11.642Z,97.10
2018-09-27T01:01:41.391Z,96.80
2018-09-27T01:04:10.207Z,96.90
2018-09-27T01:06:39.014Z,96.90
2018-09-27T01:09:09.567Z,97.40
2018-09-27T01:11:38.763Z,97.30
2018-09-27T01:14:07.599Z,97.20
2018-09-27T01:16:36.414Z,97.00
2018-09-27T01:19:05.402Z,97.10
2018-09-27T01:21:34.234Z,97.50
2018-09-27T01:24:03.047Z,97.20
2018-09-27T01:26:31.856Z,97.30
2018-09-27T01:29:00.808Z,97.20
2018-09-27T01:31:29.587Z,97.10
2018-09-27T01:33:58.387Z,97.30
2018-09-27T01:36:27.179Z,97.10
2018-09-27T01:38:56.017Z,97.20
2018-09-27T01:41:24.946Z,97.50
2018-09-27T01:43:53.739Z,97.50
2018-09-27T01:46:22.553Z,97.20
2018-09-27T01:48:51.483Z,97.30
2018-09-27T01:51:23.306Z,97.80
2018-09-27T01:53:52.223Z,96.90
2018-09-27T01:56:21.064Z,97.00
2018-09-27T01:58:49.907Z,97.30
2018-09-27T02:01:18.827Z,97.60
2018-09-27T02:03:47.642Z,97.20
2018-09-27T02:06:16.474Z,97.40
2018-09-27T02:08:45.355Z,97.20
2018-09-27T02:11:20.975Z,97.60
2018-09-27T02:13:49.794Z,97.20
2018-09-27T02:16:18.583Z,97.10
2018-09-27T02:18:47.503Z,98.00
2018-09-27T02:21:16.296Z,97.50
2018-09-27T02:23:45.231Z,97.60
2018-09-27T02:26:14.042Z,97.20
2018-09-27T02:28:42.930Z,96.90
2018-09-27T02:31:11.741Z,97.30
2018-09-27T02:33:40.567Z,97.40
2018-09-27T02:36:09.397Z,97.10
2018-09-27T02:38:38.310Z,96.70
2018-09-27T02:41:07.274Z,97.30
2018-09-27T02:43:36.094Z,97.80
2018-09-27T02:46:04.869Z,97.60
2018-09-27T02:48:33.755Z,97.40
2018-09-27T02:51:02.554Z,97.10
2018-09-27T02:53:31.371Z,97.30
2018-09-27T02:56:00.172Z,97.40
2018-09-27T02:58:29.070Z,97.00
2018-09-27T03:00:57.879Z,97.40
2018-09-27T03:03:26.738Z,97.60
2018-09-27T03:05:55.558Z,97.30
2018-09-27T03:08:24.366Z,97.50
2018-09-27T03:10:53.519Z,97.30
2018-09-27T03:13:22.341Z,97.70
2018-09-27T03:15:51.500Z,97.30
2018-09-27T03:18:20.619Z,97.50
2018-09-27T03:20:49.561Z,97.40
2018-09-27T03:23:18.327Z,97.20
2018-09-27T03:25:47.150Z,97.20
2018-09-27T03:28:16.026Z,97.30
2018-09-27T03:30:44.918Z,97.10
2018-09-27T03:33:18.550Z,97.00
2018-09-27T03:38:21.983Z,97.60
2018-09-27T03:40:50.767Z,97.30
2018-09-27T03:43:19.626Z,97.40
2018-09-27T03:45:48.423Z,97.30
2018-09-27T03:48:17.244Z,97.30
2018-09-27T03:50:46.090Z,97.30
2018-09-27T03:53:14.887Z,97.90
2018-09-27T03:55:43.714Z,97.80
2018-09-27T03:58:12.524Z,97.30
2018-09-27T04:00:41.363Z,97.60
2018-09-27T04:03:10.215Z,97.10
2018-09-27T04:05:39.090Z,96.90
2018-09-27T04:08:07.972Z,97.10
2018-09-27T04:10:36.801Z,97.50
2018-09-27T04:13:05.624Z,97.60
2018-09-27T04:15:34.441Z,97.20
2018-09-27T04:18:03.366Z,97.40
2018-09-27T04:20:36.735Z,96.80
2018-09-27T04:23:05.650Z,97.30
2018-09-27T04:25:34.446Z,97.10
2018-09-27T04:28:03.287Z,97.30
2018-09-27T04:30:32.107Z,97.40
2018-09-27T04:33:00.939Z,97.10
2018-09-27T04:35:29.748Z,97.40
2018-09-27T04:37:58.658Z,97.60
2018-09-27T04:40:27.530Z,97.40
2018-09-27T04:42:56.343Z,97.30
2018-09-27T04:45:25.114Z,97.50
2018-09-27T04:47:54.019Z,97.70
2018-09-27T04:50:22.811Z,97.10
2018-09-27T04:52:51.614Z,97.50
2018-09-27T04:55:20.417Z,97.60
2018-09-27T04:57:49.526Z,97.50
2018-09-27T05:00:31.361Z,97.30
2018-09-27T05:03:00.187Z,97.40
2018-09-27T05:05:28.998Z,97.80
2018-09-27T05:07:57.821Z,97.70
2018-09-27T05:10:26.654Z,97.70
2018-09-27T05:12:55.461Z,97.20
2018-09-27T05:15:24.332Z,97.30
2018-09-27T05:17:53.185Z,97.20
2018-09-27T05:20:22.076Z,97.40
2018-09-27T05:22:50.917Z,97.00
2018-09-27T05:25:19.714Z,97.00
2018-09-27T05:27:48.570Z,97.30
2018-09-27T05:30:17.349Z,97.70
2018-09-27T05:32:46.149Z,97.20
2018-09-27T05:35:14.958Z,97.40
2018-09-27T05:37:43.847Z,97.30
2018-09-27T05:40:12.650Z,97.70
2018-09-27T05:42:41.450Z,97.60
2018-09-27T05:45:10.274Z,97.60
2018-09-27T05:47:39.156Z,97.90
2018-09-27T05:50:08.430Z,97.90
2018-09-27T05:52:38.634Z,97.90
2018-09-27T05:55:07.470Z,98.00
2018-09-27T05:57:36.400Z,97.80
2018-09-27T06:00:05.349Z,97.80
2018-09-27T06:02:34.155Z,98.20
2018-09-27T06:05:02.936Z,98.10
2018-09-27T06:07:31.759Z,98.20
2018-09-27T06:10:00.562Z,98.40
2018-09-27T06:12:29.354Z,98.50
2018-09-27T06:14:58.172Z,98.60
2018-09-27T06:17:27.547Z,98.20
2018-09-27T06:19:56.399Z,98.30
2018-09-27T06:22:25.142Z,98.60
2018-09-27T06:24:53.938Z,98.30
2018-09-27T06:27:22.765Z,98.90
2018-09-27T06:29:51.550Z,98.90
2018-09-27T06:32:20.354Z,98.50
2018-09-27T06:34:49.177Z,98.60
2018-09-27T06:37:18.035Z,98.30
2018-09-27T06:39:46.818Z,98.30
2018-09-27T06:42:15.626Z,98.40
2018-09-27T06:44:44.520Z,98.30
2018-09-27T06:47:13.266Z,98.30
2018-09-27T06:49:42.073Z,98.30
2018-09-27T06:52:10.906Z,98.90
2018-09-27T06:54:39.689Z,97.50
2018-09-27T06:57:08.542Z,98.00
2018-09-27T06:59:37.343Z,98.50
2018-09-27T07:02:06.556Z,98.10
2018-09-27T07:04:35.396Z,98.50
2018-09-27T07:07:04.310Z,98.20
2018-09-27T07:09:33.135Z,97.90
2018-09-27T07:12:01.989Z,97.30
2018-09-27T07:14:30.856Z,97.80
2018-09-27T07:16:59.786Z,97.70
2018-09-27T07:19:28.601Z,97.70
2018-09-27T07:21:57.403Z,97.30
2018-09-27T07:24:26.174Z,98.60
2018-09-27T07:26:55.119Z,98.30
2018-09-27T07:29:23.854Z,98.40
2018-09-27T07:31:52.674Z,98.70
2018-09-27T07:34:21.463Z,98.30
2018-09-27T07:36:50.374Z,98.30
2018-09-27T07:39:19.173Z,98.20
2018-09-27T07:41:47.965Z,98.40
2018-09-27T07:44:16.786Z,97.70
2018-09-27T07:46:45.602Z,98.10
2018-09-27T07:49:14.407Z,98.10
2018-09-27T07:51:43.206Z,98.00
2018-09-27T07:54:12.079Z,98.00
2018-09-27T07:56:40.877Z,97.70
2018-09-27T07:59:13.487Z,97.90
2018-09-27T08:01:42.761Z,97.60
2018-09-27T08:04:11.602Z,97.70
2018-09-27T08:06:40.411Z,98.40
2018-09-27T08:09:09.464Z,97.80
2018-09-27T08:11:38.790Z,96.40
2018-09-27T08:14:07.954Z,98.00
2018-09-27T08:16:36.801Z,97.20
2018-09-27T08:19:05.754Z,97.00
2018-09-27T08:21:34.586Z,97.30
2018-09-27T08:24:03.455Z,97.60
2018-09-27T08:26:32.297Z,97.10
2018-09-27T08:29:01.162Z,96.70
2018-09-27T08:31:29.983Z,96.70
2018-09-27T08:33:58.806Z,95.70
2018-09-27T08:36:27.582Z,95.50
2018-09-27T08:38:56.478Z,97.10
2018-09-27T08:41:25.370Z,97.10
2018-09-27T08:43:54.139Z,97.10
2018-09-27T08:46:23.062Z,97.00
2018-09-27T08:48:51.955Z,96.40
2018-09-27T08:51:20.794Z,96.70
2018-09-27T08:53:49.603Z,97.50
2018-09-27T08:56:18.495Z,97.20
2018-09-27T08:58:47.342Z,96.10
2018-09-27T09:01:16.147Z,97.60
2018-09-27T09:03:45.112Z,97.00
2018-09-27T09:06:13.806Z,96.50
2018-09-27T09:08:42.769Z,96.20
2018-09-27T09:11:11.578Z,98.40
2018-09-27T09:13:40.443Z,97.90
2018-09-27T09:16:09.257Z,97.60
2018-09-27T09:18:38.163Z,96.80
2018-09-27T09:21:07.511Z,97.00
2018-09-27T09:23:36.399Z,97.40
2018-09-27T09:26:17.235Z,97.20
2018-09-27T09:28:46.041Z,97.30
2018-09-27T09:31:14.841Z,96.10
2018-09-27T09:33:43.802Z,97.20
2018-09-27T09:36:12.466Z,97.50
2018-09-27T09:38:41.374Z,97.90
2018-09-27T09:41:10.175Z,97.30
2018-09-27T09:43:38.974Z,97.00
2018-09-27T09:46:07.804Z,97.90
2018-09-27T09:48:36.646Z,98.20
2018-09-27T09:51:05.502Z,98.60
2018-09-27T09:53:34.309Z,98.80
2018-09-27T09:56:03.638Z,99.20
2018-09-27T09:58:32.523Z,98.60
2018-09-27T10:01:01.339Z,99.00
2018-09-27T10:03:30.230Z,97.70
2018-09-27T10:05:59.049Z,98.00
2018-09-27T10:08:27.851Z,96.60
2018-09-27T10:10:56.658Z,97.40
2018-09-27T10:13:25.435Z,97.20
2018-09-27T10:15:54.277Z,96.50
2018-09-27T10:18:23.131Z,95.50
2018-09-27T10:20:51.935Z,94.30
2018-09-27T10:23:20.762Z,94.30
2018-09-27T10:25:49.574Z,95.10
2018-09-27T10:28:18.498Z,95.60
2018-09-27T10:30:47.293Z,95.60
2018-09-27T10:33:16.095Z,93.80
2018-09-27T10:35:44.919Z,94.40
2018-09-27T10:38:13.815Z,95.40
2018-09-27T10:40:42.650Z,94.30
2018-09-27T10:43:11.448Z,93.30
2018-09-27T10:45:40.255Z,95.10
2018-09-27T10:48:09.175Z,94.20
2018-09-27T10:50:37.990Z,93.60
2018-09-27T10:53:07.515Z,91.80
2018-09-27T10:55:36.322Z,91.10
2018-09-27T10:58:05.183Z,93.00
2018-09-27T11:00:34.667Z,90.00
2018-09-27T11:03:03.471Z,88.90
2018-09-27T11:05:32.310Z,90.00
2018-09-27T11:08:01.111Z,89.60
2018-09-27T11:10:29.899Z,91.50
2018-09-27T11:12:58.711Z,89.40
2018-09-27T11:15:27.527Z,90.10
2018-09-27T11:17:56.387Z,87.90
2018-09-27T11:20:25.245Z,84.20
2018-09-27T11:22:54.023Z,79.10
2018-09-27T11:25:22.817Z,78.30
2018-09-27T11:27:51.643Z,80.30
2018-09-27T11:30:25.995Z,76.70
2018-09-27T11:32:54.858Z,76.10
2018-09-27T11:35:23.635Z,73.80
2018-09-27T11:37:52.731Z,75.20
2018-09-27T11:40:21.536Z,69.10
2018-09-27T11:42:50.413Z,71.10
2018-09-27T11:45:19.179Z,67.20
2018-09-27T11:47:48.153Z,67.80
2018-09-27T11:50:17.008Z,75.40
2018-09-27T11:52:45.771Z,65.40
2018-09-27T11:55:15.247Z,63.00
2018-09-27T11:57:44.155Z,67.40
2018-09-27T12:00:17.142Z,68.40
2018-09-27T12:02:46.743Z,70.70
2018-09-27T12:05:15.591Z,62.60
2018-09-27T12:07:44.499Z,61.40
2018-09-27T12:10:13.307Z,62.80
2018-09-27T12:12:42.370Z,62.40
2018-09-27T12:15:11.270Z,57.00
2018-09-27T12:17:40.133Z,57.30
2018-09-27T12:20:08.970Z,58.40
2018-09-27T12:22:37.851Z,54.10
2018-09-27T12:25:06.654Z,54.90
2018-09-27T12:27:35.551Z,54.30
2018-09-27T12:30:05.028Z,52.00
2018-09-27T12:32:33.823Z,48.80
2018-09-27T12:35:02.749Z,51.20
2018-09-27T12:37:32.234Z,49.20
2018-09-27T12:40:01.037Z,49.40
2018-09-27T12:42:29.888Z,52.70
2018-09-27T12:44:58.697Z,52.40
2018-09-27T12:47:27.587Z,51.90
2018-09-27T12:49:56.387Z,47.10
2018-09-27T12:52:25.330Z,48.20
2018-09-27T12:54:54.055Z,47.80
2018-09-27T12:57:23.049Z,47.10
2018-09-27T12:59:51.954Z,44.60
2018-09-27T13:02:20.810Z,45.90
2018-09-27T13:04:49.591Z,45.70
2018-09-27T13:07:18.438Z,45.80
2018-09-27T13:09:47.443Z,45.80
2018-09-27T13:12:16.258Z,44.80
2018-09-27T13:14:45.045Z,44.80
2018-09-27T13:17:13.966Z,47.50
2018-09-27T13:19:42.719Z,45.10
2018-09-27T13:22:11.517Z,44.10
2018-09-27T13:24:40.369Z,46.10
2018-09-27T13:27:09.418Z,44.40
2018-09-27T13:29:38.194Z,45.50
2018-09-27T13:32:07.061Z,45.50
2018-09-27T13:34:35.828Z,45.00
2018-09-27T13:37:05.155Z,46.10
2018-09-27T13:39:33.914Z,45.60
2018-09-27T13:42:02.734Z,48.40
2018-09-27T13:44:31.547Z,48.80
2018-09-27T13:47:00.566Z,48.60
2018-09-27T13:49:29.419Z,48.20
2018-09-27T13:51:58.211Z,45.50
2018-09-27T13:54:27.052Z,47.20
2018-09-27T13:56:56.025Z,44.70
2018-09-27T13:59:28.283Z,45.50
2018-09-27T14:01:57.090Z,45.60
2018-09-27T14:04:25.947Z,45.50
2018-09-27T14:06:54.752Z,46.30
2018-09-27T14:09:23.590Z,46.50
2018-09-27T14:11:52.486Z,45.60
2018-09-27T14:14:21.311Z,44.80
2018-09-27T14:16:50.187Z,46.50
2018-09-27T14:19:18.998Z,45.30
2018-09-27T14:21:47.847Z,47.10
2018-09-27T14:24:16.674Z,47.00
2018-09-27T14:26:45.507Z,46.90
2018-09-27T14:29:14.365Z,47.10
2018-09-27T14:31:43.174Z,46.60
2018-09-27T14:34:12.843Z,47.60
2018-09-27T14:36:41.704Z,49.20
2018-09-27T14:39:10.907Z,48.60
2018-09-27T14:41:39.954Z,49.20
2018-09-27T14:44:08.706Z,49.80
2018-09-27T14:46:37.544Z,48.60
2018-09-27T14:49:06.456Z,48.60
2018-09-27T14:51:35.302Z,50.30
2018-09-27T14:54:04.133Z,51.50
2018-09-27T14:56:33.035Z,50.40
2018-09-27T14:59:01.891Z,52.40
2018-09-27T15:01:30.683Z,53.30
2018-09-27T15:03:59.815Z,51.10
2018-09-27T15:06:28.704Z,50.60
2018-09-27T15:08:57.655Z,51.10
2018-09-27T15:11:26.488Z,51.70
2018-09-27T15:13:55.323Z,51.50
2018-09-27T15:16:24.202Z,54.00
2018-09-27T15:18:53.004Z,52.70
2018-09-27T15:21:21.838Z,53.10
2018-09-27T15:23:50.639Z,55.20
2018-09-27T15:26:19.456Z,53.80
2018-09-27T15:28:48.384Z,53.80
2018-09-27T15:31:17.223Z,53.60
2018-09-27T15:33:46.144Z,54.10
2018-09-27T15:36:14.952Z,54.10
2018-09-27T15:38:43.855Z,55.00
2018-09-27T15:41:12.794Z,54.40
2018-09-27T15:43:41.622Z,55.40
2018-09-27T15:46:10.467Z,55.90
2018-09-27T15:48:39.965Z,55.80
2018-09-27T15:51:09.172Z,57.20
2018-09-27T15:53:38.103Z,55.50
2018-09-27T15:56:07.490Z,58.60
2018-09-27T15:58:36.481Z,58.80
2018-09-27T16:01:05.415Z,56.60
2018-09-27T16:03:34.228Z,57.00
2018-09-27T16:06:03.071Z,58.60
2018-09-27T16:08:31.973Z,55.60
2018-09-27T16:11:00.787Z,59.60
2018-09-27T16:13:29.604Z,56.90
2018-09-27T16:15:58.418Z,63.90
2018-09-27T16:18:27.310Z,60.00
2018-09-27T16:20:56.136Z,66.20
2018-09-27T16:23:24.958Z,67.70
2018-09-27T16:25:53.804Z,67.20
2018-09-27T16:28:22.683Z,68.00
2018-09-27T16:30:51.504Z,72.00
2018-09-27T16:33:20.404Z,73.50
2018-09-27T16:35:49.215Z,74.70
2018-09-27T16:38:18.116Z,75.70
2018-09-27T16:40:46.910Z,76.70
2018-09-27T16:43:15.715Z,77.50
2018-09-27T16:45:44.514Z,78.40
2018-09-27T16:48:13.414Z,78.80
2018-09-27T16:50:42.219Z,80.00
2018-09-27T16:53:10.987Z,80.80
2018-09-27T16:55:39.895Z,81.40
2018-09-27T16:58:08.772Z,82.20
2018-09-27T17:00:37.655Z,82.70
2018-09-27T17:03:06.516Z,83.20
2018-09-27T17:05:35.415Z,83.50
2018-09-27T17:08:04.323Z,84.10
2018-09-27T17:10:33.214Z,85.50
2018-09-27T17:13:02.140Z,86.20
2018-09-27T17:15:30.904Z,86.70
2018-09-27T17:17:59.763Z,87.50
2018-09-27T17:20:28.651Z,88.20
2018-09-27T17:22:57.443Z,88.90
2018-09-27T17:25:26.301Z,89.10
2018-09-27T17:27:55.172Z,89.30
2018-09-27T17:30:24.050Z,90.00
2018-09-27T17:32:53.467Z,90.30
2018-09-27T17:35:22.308Z,89.90
2018-09-27T17:37:51.539Z,90.70
2018-09-27T17:40:20.377Z,91.50
2018-09-27T17:42:49.191Z,91.40
2018-09-27T17:45:18.070Z,91.70
2018-09-27T17:47:46.955Z,92.00
2018-09-27T17:50:15.803Z,92.10
2018-09-27T17:52:44.664Z,92.30
2018-09-27T17:55:13.435Z,92.30
2018-09-27T17:57:42.347Z,92.30
2018-09-27T18:00:13.011Z,91.90
2018-09-27T18:02:42.063Z,92.10
2018-09-27T18:05:18.983Z,92.90
2018-09-27T18:07:39.894Z,93.10
2018-09-27T18:10:08.695Z,93.10
2018-09-27T18:12:37.495Z,92.90
2018-09-27T18:15:06.460Z,93.10
2018-09-27T18:17:35.317Z,94.10
2018-09-27T18:20:04.439Z,94.10
2018-09-27T18:22:33.670Z,94.30
2018-09-27T18:25:02.582Z,94.40
2018-09-27T18:27:31.582Z,94.70
2018-09-27T18:30:00.685Z,94.80
2018-09-27T18:32:29.516Z,93.70
2018-09-27T18:34:58.344Z,94.60
2018-09-27T18:37:27.551Z,94.70
2018-09-27T18:39:56.372Z,94.50
2018-09-27T18:42:25.200Z,95.20
2018-09-27T18:44:54.030Z,95.10
2018-09-27T18:47:23.034Z,95.10
2018-09-27T18:49:52.075Z,94.60
2018-09-27T18:52:20.879Z,95.10
2018-09-27T18:54:50.650Z,94.40
2018-09-27T18:57:19.620Z,95.00
2018-09-27T18:59:48.494Z,95.20
2018-09-27T19:02:17.322Z,94.90
2018-09-27T19:04:46.156Z,95.10
2018-09-27T19:07:16.920Z,95.10
2018-09-27T19:09:45.721Z,94.90
2018-09-27T19:12:14.555Z,95.60
2018-09-27T19:14:43.373Z,95.70
2018-09-27T19:17:12.468Z,96.30
2018-09-27T19:19:41.942Z,95.80
2018-09-27T19:22:10.764Z,95.70
2018-09-27T19:24:39.572Z,95.90
2018-09-27T19:27:08.467Z,95.80
2018-09-27T19:29:37.294Z,95.80
2018-09-27T19:32:06.515Z,95.70
2018-09-27T19:34:35.335Z,95.80
2018-09-27T19:37:04.763Z,96.20
2018-09-27T19:39:33.587Z,96.10
2018-09-27T19:42:02.447Z,95.80
2018-09-27T19:44:31.278Z,96.10
2018-09-27T19:47:00.089Z,96.20
2018-09-27T19:49:29.239Z,96.20
2018-09-27T19:51:58.059Z,96.30
2018-09-27T19:54:26.864Z,96.20
2018-09-27T19:56:56.208Z,96.30
2018-09-27T19:59:28.775Z,96.30
2018-09-27T20:01:58.779Z,96.40
2018-09-27T20:04:28.079Z,96.40
2018-09-27T20:06:57.639Z,96.70
2018-09-27T20:09:26.443Z,97.00
2018-09-27T20:11:55.263Z,96.80
2018-09-27T20:14:24.071Z,96.50
2018-09-27T20:16:52.951Z,96.90
2018-09-27T20:19:21.747Z,96.90
2018-09-27T20:21:50.563Z,96.80
2018-09-27T20:24:20.155Z,97.30
2018-09-27T20:26:48.970Z,97.50
2018-09-27T20:29:17.782Z,97.30
2018-09-27T20:31:46.601Z,97.30
2018-09-27T20:34:15.503Z,97.20
2018-09-27T20:36:44.255Z,97.20
2018-09-27T20:39:13.110Z,97.00
2018-09-27T20:41:41.998Z,97.60
2018-09-27T20:44:10.787Z,97.70
2018-09-27T20:46:39.595Z,97.60
2018-09-27T20:49:08.486Z,97.80
2018-09-27T20:51:37.278Z,98.30
2018-09-27T20:54:06.312Z,98.30
2018-09-27T20:56:35.099Z,98.40
2018-09-27T20:59:04.311Z,97.90
2018-09-27T21:01:33.434Z,98.60
2018-09-27T21:04:02.285Z,98.60
2018-09-27T21:06:31.119Z,98.50
2018-09-27T21:09:00.132Z,98.80
2018-09-27T21:11:29.031Z,98.00
2018-09-27T21:13:57.998Z,98.50
2018-09-27T21:16:26.799Z,98.30
2018-09-27T21:18:55.827Z,98.40
2018-09-27T21:21:24.619Z,98.50
2018-09-27T21:23:54.099Z,98.50
2018-09-27T21:26:23.256Z,98.20
2018-09-27T21:28:52.071Z,98.20
2018-09-27T21:31:20.915Z,98.50
2018-09-27T21:33:49.703Z,98.30
2018-09-27T21:36:18.523Z,98.30
2018-09-27T21:38:47.479Z,98.10
2018-09-27T21:41:16.258Z,98.40
2018-09-27T21:43:45.063Z,98.60
2018-09-27T21:46:13.888Z,98.50
2018-09-27T21:48:42.787Z,98.50
2018-09-27T21:51:11.575Z,98.10
2018-09-27T21:53:40.415Z,98.50
2018-09-27T21:56:09.222Z,98.30
2018-09-27T21:58:38.354Z,98.60
2018-09-27T22:01:07.110Z,98.60
2018-09-27T22:03:35.955Z,98.60
2018-09-27T22:06:04.943Z,98.70
2018-09-27T22:08:33.790Z,98.20
2018-09-27T22:11:02.616Z,98.60
2018-09-27T22:13:31.429Z,98.50
2018-09-27T22:16:00.274Z,98.60
2018-09-27T22:18:29.150Z,98.50
2018-09-27T22:20:57.973Z,98.80
2018-09-27T22:23:26.790Z,98.10
2018-09-27T22:25:55.585Z,98.20
2018-09-27T22:28:24.403Z,98.60
2018-09-27T22:30:53.210Z,98.40
2018-09-27T22:33:22.120Z,98.40
2018-09-27T22:35:50.931Z,97.90
2018-09-27T22:38:19.777Z,98.60
2018-09-27T22:40:48.590Z,98.30
2018-09-27T22:43:17.443Z,98.60
2018-09-27T22:45:46.347Z,98.60
2018-09-27T22:48:16.248Z,98.90
2018-09-27T22:50:45.068Z,99.00
2018-09-27T22:53:13.882Z,99.10
2018-09-27T22:55:42.684Z,99.00
2018-09-27T22:58:11.603Z,99.10
2018-09-27T23:00:40.408Z,98.70
2018-09-27T23:03:09.262Z,99.20
2018-09-27T23:05:38.070Z,99.20
2018-09-27T23:08:07.181Z,98.70
2018-09-27T23:10:36.015Z,99.00
2018-09-27T23:13:04.859Z,99.20
2018-09-27T23:15:33.626Z,99.20
2018-09-27T23:18:02.658Z,98.90
2018-09-27T23:20:31.488Z,98.70
2018-09-27T23:23:00.266Z,99.00
2018-09-27T23:25:29.091Z,99.10
2018-09-27T23:27:57.983Z,99.10
2018-09-27T23:30:26.762Z,99.20
2018-09-27T23:32:55.542Z,99.40
2018-09-27T23:35:24.474Z,99.20
2018-09-27T23:37:53.329Z,99.30
2018-09-27T23:40:22.213Z,99.20
2018-09-27T23:42:51.050Z,99.50
2018-09-27T23:45:19.875Z,99.60
2018-09-27T23:47:48.746Z,99.30
2018-09-27T23:50:17.543Z,99.20
2018-09-27T23:52:46.344Z,99.10
2018-09-27T23:55:15.203Z,99.20
2018-09-27T23:57:44.112Z,99.10
